sensor_id;sensor_type;location;lat;lon;timestamp;P1;durP1;ratioP1;P2;durP2;ratioP2
80104;SDS011;69865;47.648;19.030;2023-07-29T00:00:13;3.83;;;3.83;;
80104;SDS011;69865;47.648;19.030;2023-07-29T00:00:45;4.00;;;4.00;;
80104;SDS011;69865;47.648;19.030;2023-07-29T00:01:17;4.10;;;4.10;;
80104;SDS011;69865;47.648;19.030;2023-07-29T00:01:49;4.00;;;4.00;;
80104;SDS011;69865;47.648;19.030;2023-07-29T00:02:21;4.00;;;4.00;;
80104;SDS011;69865;47.648;19.030;2023-07-29T00:02:53;4.33;;;4.33;;
80104;SDS011;69865;47.648;19.030;2023-07-29T00:03:25;4.13;;;4.13;;
80104;SDS011;69865;47.648;19.030;2023-07-29T00:03:58;4.63;;;4.63;;
80104;SDS011;69865;47.648;19.030;2023-07-29T00:04:30;4.03;;;4.03;;
80104;SDS011;69865;47.648;19.030;2023-07-29T00:05:02;3.97;;;3.97;;
80104;SDS011;69865;47.648;19.030;2023-07-29T00:05:34;4.27;;;4.27;;
80104;SDS011;69865;47.648;19.030;2023-07-29T00:06:06;4.50;;;4.50;;
80104;SDS011;69865;47.648;19.030;2023-07-29T00:06:38;3.83;;;3.83;;
80104;SDS011;69865;47.648;19.030;2023-07-29T00:07:11;4.40;;;4.40;;
80104;SDS011;69865;47.648;19.030;2023-07-29T00:07:43;4.13;;;4.13;;
80104;SDS011;69865;47.648;19.030;2023-07-29T00:08:15;4.20;;;4.20;;
80104;SDS011;69865;47.648;19.030;2023-07-29T00:08:47;4.17;;;4.17;;
80104;SDS011;69865;47.648;19.030;2023-07-29T00:09:19;4.07;;;4.07;;
80104;SDS011;69865;47.648;19.030;2023-07-29T00:09:51;4.00;;;4.00;;
80104;SDS011;69865;47.648;19.030;2023-07-29T00:10:23;4.33;;;4.33;;
80104;SDS011;69865;47.648;19.030;2023-07-29T00:10:55;4.67;;;4.67;;
80104;SDS011;69865;47.648;19.030;2023-07-29T00:11:27;4.30;;;4.30;;
80104;SDS011;69865;47.648;19.030;2023-07-29T00:12:00;4.60;;;4.60;;
80104;SDS011;69865;47.648;19.030;2023-07-29T00:12:32;4.17;;;4.17;;
80104;SDS011;69865;47.648;19.030;2023-07-29T00:13:05;3.70;;;3.70;;
80104;SDS011;69865;47.648;19.030;2023-07-29T00:13:38;3.50;;;3.50;;
80104;SDS011;69865;47.648;19.030;2023-07-29T00:14:10;4.10;;;4.10;;
80104;SDS011;69865;47.648;19.030;2023-07-29T00:14:42;4.00;;;4.00;;
80104;SDS011;69865;47.648;19.030;2023-07-29T00:15:14;4.10;;;4.10;;
80104;SDS011;69865;47.648;19.030;2023-07-29T00:15:46;4.20;;;4.20;;
80104;SDS011;69865;47.648;19.030;2023-07-29T00:16:19;4.27;;;4.27;;
80104;SDS011;69865;47.648;19.030;2023-07-29T00:16:51;4.27;;;4.27;;
80104;SDS011;69865;47.648;19.030;2023-07-29T00:17:23;4.00;;;4.00;;
80104;SDS011;69865;47.648;19.030;2023-07-29T00:17:55;3.83;;;3.83;;
80104;SDS011;69865;47.648;19.030;2023-07-29T00:18:27;3.70;;;3.70;;
80104;SDS011;69865;47.648;19.030;2023-07-29T00:18:59;4.20;;;4.20;;
80104;SDS011;69865;47.648;19.030;2023-07-29T00:19:31;4.47;;;4.47;;
80104;SDS011;69865;47.648;19.030;2023-07-29T00:20:04;4.63;;;4.63;;
80104;SDS011;69865;47.648;19.030;2023-07-29T00:20:39;4.20;;;4.20;;
80104;SDS011;69865;47.648;19.030;2023-07-29T00:21:12;4.20;;;4.20;;
80104;SDS011;69865;47.648;19.030;2023-07-29T00:21:44;4.07;;;4.07;;
80104;SDS011;69865;47.648;19.030;2023-07-29T00:22:16;4.50;;;4.50;;
80104;SDS011;69865;47.648;19.030;2023-07-29T00:22:48;4.20;;;4.20;;
80104;SDS011;69865;47.648;19.030;2023-07-29T00:23:20;4.70;;;4.70;;
80104;SDS011;69865;47.648;19.030;2023-07-29T00:23:52;3.60;;;3.60;;
80104;SDS011;69865;47.648;19.030;2023-07-29T00:24:24;3.77;;;3.77;;
80104;SDS011;69865;47.648;19.030;2023-07-29T00:24:56;4.27;;;4.27;;
80104;SDS011;69865;47.648;19.030;2023-07-29T00:25:28;4.43;;;4.43;;
80104;SDS011;69865;47.648;19.030;2023-07-29T00:26:00;4.43;;;4.43;;
80104;SDS011;69865;47.648;19.030;2023-07-29T00:26:32;4.03;;;4.03;;
80104;SDS011;69865;47.648;19.030;2023-07-29T00:27:05;4.27;;;4.27;;
80104;SDS011;69865;47.648;19.030;2023-07-29T00:27:37;4.17;;;4.17;;
80104;SDS011;69865;47.648;19.030;2023-07-29T00:28:11;4.87;;;4.87;;
80104;SDS011;69865;47.648;19.030;2023-07-29T00:28:43;4.60;;;4.60;;
80104;SDS011;69865;47.648;19.030;2023-07-29T00:29:15;4.37;;;4.37;;
80104;SDS011;69865;47.648;19.030;2023-07-29T00:29:47;4.97;;;4.97;;
80104;SDS011;69865;47.648;19.030;2023-07-29T00:30:19;4.83;;;4.83;;
80104;SDS011;69865;47.648;19.030;2023-07-29T00:30:51;4.37;;;4.37;;
80104;SDS011;69865;47.648;19.030;2023-07-29T00:31:24;4.03;;;4.03;;
80104;SDS011;69865;47.648;19.030;2023-07-29T00:31:56;3.83;;;3.83;;
80104;SDS011;69865;47.648;19.030;2023-07-29T00:32:29;4.30;;;4.30;;
80104;SDS011;69865;47.648;19.030;2023-07-29T00:33:01;4.47;;;4.47;;
80104;SDS011;69865;47.648;19.030;2023-07-29T00:33:33;4.63;;;4.63;;
80104;SDS011;69865;47.648;19.030;2023-07-29T00:34:06;4.27;;;4.27;;
80104;SDS011;69865;47.648;19.030;2023-07-29T00:34:38;4.30;;;4.30;;
80104;SDS011;69865;47.648;19.030;2023-07-29T00:35:10;4.33;;;4.33;;
80104;SDS011;69865;47.648;19.030;2023-07-29T00:35:42;4.77;;;4.77;;
80104;SDS011;69865;47.648;19.030;2023-07-29T00:36:14;5.17;;;5.17;;
80104;SDS011;69865;47.648;19.030;2023-07-29T00:36:47;4.90;;;4.90;;
80104;SDS011;69865;47.648;19.030;2023-07-29T00:37:19;4.60;;;4.60;;
80104;SDS011;69865;47.648;19.030;2023-07-29T00:37:51;4.83;;;4.83;;
80104;SDS011;69865;47.648;19.030;2023-07-29T00:38:23;4.60;;;4.60;;
80104;SDS011;69865;47.648;19.030;2023-07-29T00:38:55;4.53;;;4.53;;
80104;SDS011;69865;47.648;19.030;2023-07-29T00:39:27;4.83;;;4.83;;
80104;SDS011;69865;47.648;19.030;2023-07-29T00:39:59;4.90;;;4.90;;
80104;SDS011;69865;47.648;19.030;2023-07-29T00:40:31;4.37;;;4.37;;
80104;SDS011;69865;47.648;19.030;2023-07-29T00:41:07;4.97;;;4.97;;
80104;SDS011;69865;47.648;19.030;2023-07-29T00:41:39;4.57;;;4.57;;
80104;SDS011;69865;47.648;19.030;2023-07-29T00:42:12;4.57;;;4.57;;
80104;SDS011;69865;47.648;19.030;2023-07-29T00:42:44;4.43;;;4.43;;
80104;SDS011;69865;47.648;19.030;2023-07-29T00:43:17;4.27;;;4.27;;
80104;SDS011;69865;47.648;19.030;2023-07-29T00:43:49;4.73;;;4.73;;
80104;SDS011;69865;47.648;19.030;2023-07-29T00:44:21;4.67;;;4.67;;
80104;SDS011;69865;47.648;19.030;2023-07-29T00:44:53;4.67;;;4.67;;
80104;SDS011;69865;47.648;19.030;2023-07-29T00:45:25;5.03;;;5.03;;
80104;SDS011;69865;47.648;19.030;2023-07-29T00:46:00;5.03;;;5.03;;
80104;SDS011;69865;47.648;19.030;2023-07-29T00:46:33;4.73;;;4.73;;
80104;SDS011;69865;47.648;19.030;2023-07-29T00:47:08;4.97;;;4.97;;
80104;SDS011;69865;47.648;19.030;2023-07-29T00:47:40;4.77;;;4.77;;
80104;SDS011;69865;47.648;19.030;2023-07-29T00:48:13;4.80;;;4.80;;
80104;SDS011;69865;47.648;19.030;2023-07-29T00:48:46;4.93;;;4.93;;
80104;SDS011;69865;47.648;19.030;2023-07-29T00:49:19;4.83;;;4.83;;
80104;SDS011;69865;47.648;19.030;2023-07-29T00:49:52;5.13;;;5.13;;
80104;SDS011;69865;47.648;19.030;2023-07-29T00:50:24;4.57;;;4.57;;
80104;SDS011;69865;47.648;19.030;2023-07-29T00:50:56;4.57;;;4.57;;
80104;SDS011;69865;47.648;19.030;2023-07-29T00:51:28;4.90;;;4.90;;
80104;SDS011;69865;47.648;19.030;2023-07-29T00:52:01;4.87;;;4.87;;
80104;SDS011;69865;47.648;19.030;2023-07-29T00:52:33;5.13;;;5.13;;
80104;SDS011;69865;47.648;19.030;2023-07-29T00:53:05;4.47;;;4.47;;
80104;SDS011;69865;47.648;19.030;2023-07-29T00:53:37;4.30;;;4.30;;
80104;SDS011;69865;47.648;19.030;2023-07-29T00:54:09;4.77;;;4.77;;
80104;SDS011;69865;47.648;19.030;2023-07-29T00:54:42;4.73;;;4.73;;
80104;SDS011;69865;47.648;19.030;2023-07-29T00:55:14;4.67;;;4.67;;
80104;SDS011;69865;47.648;19.030;2023-07-29T00:55:46;4.73;;;4.73;;
80104;SDS011;69865;47.648;19.030;2023-07-29T00:56:18;4.73;;;4.73;;
80104;SDS011;69865;47.648;19.030;2023-07-29T00:56:50;4.57;;;4.57;;
80104;SDS011;69865;47.648;19.030;2023-07-29T00:57:22;4.90;;;4.90;;
80104;SDS011;69865;47.648;19.030;2023-07-29T00:57:55;4.77;;;4.77;;
80104;SDS011;69865;47.648;19.030;2023-07-29T00:58:29;4.83;;;4.83;;
80104;SDS011;69865;47.648;19.030;2023-07-29T00:59:01;4.73;;;4.73;;
80104;SDS011;69865;47.648;19.030;2023-07-29T00:59:34;4.53;;;4.53;;
80104;SDS011;69865;47.648;19.030;2023-07-29T01:00:07;4.67;;;4.67;;
80104;SDS011;69865;47.648;19.030;2023-07-29T01:00:40;4.83;;;4.83;;
80104;SDS011;69865;47.648;19.030;2023-07-29T01:01:13;4.43;;;4.43;;
80104;SDS011;69865;47.648;19.030;2023-07-29T01:01:45;4.63;;;4.63;;
80104;SDS011;69865;47.648;19.030;2023-07-29T01:02:17;4.87;;;4.87;;
80104;SDS011;69865;47.648;19.030;2023-07-29T01:02:50;4.73;;;4.73;;
80104;SDS011;69865;47.648;19.030;2023-07-29T01:03:22;4.77;;;4.77;;
80104;SDS011;69865;47.648;19.030;2023-07-29T01:03:54;4.57;;;4.57;;
80104;SDS011;69865;47.648;19.030;2023-07-29T01:04:27;4.00;;;4.00;;
80104;SDS011;69865;47.648;19.030;2023-07-29T01:04:59;4.73;;;4.73;;
80104;SDS011;69865;47.648;19.030;2023-07-29T01:05:34;4.80;;;4.80;;
80104;SDS011;69865;47.648;19.030;2023-07-29T01:06:12;5.07;;;5.07;;
80104;SDS011;69865;47.648;19.030;2023-07-29T01:06:57;4.57;;;4.57;;
80104;SDS011;69865;47.648;19.030;2023-07-29T01:07:39;4.53;;;4.53;;
80104;SDS011;69865;47.648;19.030;2023-07-29T01:08:20;4.73;;;4.73;;
80104;SDS011;69865;47.648;19.030;2023-07-29T01:09:01;4.87;;;4.87;;
80104;SDS011;69865;47.648;19.030;2023-07-29T01:09:36;4.93;;;4.93;;
80104;SDS011;69865;47.648;19.030;2023-07-29T01:10:20;4.50;;;4.50;;
80104;SDS011;69865;47.648;19.030;2023-07-29T01:11:03;4.43;;;4.43;;
80104;SDS011;69865;47.648;19.030;2023-07-29T01:11:48;4.93;;;4.93;;
80104;SDS011;69865;47.648;19.030;2023-07-29T01:12:33;4.23;;;4.23;;
80104;SDS011;69865;47.648;19.030;2023-07-29T01:13:10;4.73;;;4.73;;
80104;SDS011;69865;47.648;19.030;2023-07-29T01:13:56;5.20;;;5.20;;
80104;SDS011;69865;47.648;19.030;2023-07-29T01:14:37;5.33;;;5.33;;
80104;SDS011;69865;47.648;19.030;2023-07-29T01:15:16;5.17;;;5.17;;
80104;SDS011;69865;47.648;19.030;2023-07-29T01:15:55;4.93;;;4.93;;
80104;SDS011;69865;47.648;19.030;2023-07-29T01:16:33;5.00;;;5.00;;
80104;SDS011;69865;47.648;19.030;2023-07-29T01:17:13;4.90;;;4.90;;
80104;SDS011;69865;47.648;19.030;2023-07-29T01:17:54;4.97;;;4.97;;
80104;SDS011;69865;47.648;19.030;2023-07-29T01:18:31;5.37;;;5.37;;
80104;SDS011;69865;47.648;19.030;2023-07-29T01:19:06;4.73;;;4.73;;
80104;SDS011;69865;47.648;19.030;2023-07-29T01:20:04;5.17;;;5.17;;
80104;SDS011;69865;47.648;19.030;2023-07-29T01:20:40;4.60;;;4.60;;
80104;SDS011;69865;47.648;19.030;2023-07-29T01:21:17;4.63;;;4.63;;
80104;SDS011;69865;47.648;19.030;2023-07-29T01:21:51;5.10;;;5.10;;
80104;SDS011;69865;47.648;19.030;2023-07-29T01:22:23;4.63;;;4.63;;
80104;SDS011;69865;47.648;19.030;2023-07-29T01:22:56;4.50;;;4.50;;
80104;SDS011;69865;47.648;19.030;2023-07-29T01:23:30;4.57;;;4.57;;
80104;SDS011;69865;47.648;19.030;2023-07-29T01:24:03;4.67;;;4.67;;
80104;SDS011;69865;47.648;19.030;2023-07-29T01:24:35;4.70;;;4.70;;
80104;SDS011;69865;47.648;19.030;2023-07-29T01:25:07;4.80;;;4.80;;
80104;SDS011;69865;47.648;19.030;2023-07-29T01:25:39;4.50;;;4.50;;
80104;SDS011;69865;47.648;19.030;2023-07-29T01:26:11;5.27;;;5.27;;
80104;SDS011;69865;47.648;19.030;2023-07-29T01:26:43;4.80;;;4.80;;
80104;SDS011;69865;47.648;19.030;2023-07-29T01:27:15;4.70;;;4.70;;
80104;SDS011;69865;47.648;19.030;2023-07-29T01:27:48;4.90;;;4.90;;
80104;SDS011;69865;47.648;19.030;2023-07-29T01:28:21;4.70;;;4.70;;
80104;SDS011;69865;47.648;19.030;2023-07-29T01:28:54;4.80;;;4.80;;
80104;SDS011;69865;47.648;19.030;2023-07-29T01:29:27;4.50;;;4.50;;
80104;SDS011;69865;47.648;19.030;2023-07-29T01:29:59;4.37;;;4.37;;
80104;SDS011;69865;47.648;19.030;2023-07-29T01:30:37;4.27;;;4.27;;
80104;SDS011;69865;47.648;19.030;2023-07-29T01:31:12;5.10;;;5.10;;
80104;SDS011;69865;47.648;19.030;2023-07-29T01:31:52;4.80;;;4.80;;
80104;SDS011;69865;47.648;19.030;2023-07-29T01:32:29;4.67;;;4.67;;
80104;SDS011;69865;47.648;19.030;2023-07-29T01:33:09;4.63;;;4.63;;
80104;SDS011;69865;47.648;19.030;2023-07-29T01:33:51;4.33;;;4.33;;
80104;SDS011;69865;47.648;19.030;2023-07-29T01:34:29;4.90;;;4.90;;
80104;SDS011;69865;47.648;19.030;2023-07-29T01:35:15;5.20;;;5.20;;
80104;SDS011;69865;47.648;19.030;2023-07-29T01:35:54;4.83;;;4.83;;
80104;SDS011;69865;47.648;19.030;2023-07-29T01:36:33;4.67;;;4.67;;
80104;SDS011;69865;47.648;19.030;2023-07-29T01:37:09;4.50;;;4.50;;
80104;SDS011;69865;47.648;19.030;2023-07-29T01:37:48;4.30;;;4.30;;
80104;SDS011;69865;47.648;19.030;2023-07-29T01:38:24;4.57;;;4.57;;
80104;SDS011;69865;47.648;19.030;2023-07-29T01:39:02;4.87;;;4.87;;
80104;SDS011;69865;47.648;19.030;2023-07-29T01:39:34;4.80;;;4.80;;
80104;SDS011;69865;47.648;19.030;2023-07-29T01:40:09;4.80;;;4.80;;
80104;SDS011;69865;47.648;19.030;2023-07-29T01:40:42;4.63;;;4.63;;
80104;SDS011;69865;47.648;19.030;2023-07-29T01:41:16;4.33;;;4.33;;
80104;SDS011;69865;47.648;19.030;2023-07-29T01:41:49;4.53;;;4.53;;
80104;SDS011;69865;47.648;19.030;2023-07-29T01:42:22;4.60;;;4.60;;
80104;SDS011;69865;47.648;19.030;2023-07-29T01:42:58;4.97;;;4.97;;
80104;SDS011;69865;47.648;19.030;2023-07-29T01:43:30;4.40;;;4.40;;
80104;SDS011;69865;47.648;19.030;2023-07-29T01:44:03;4.97;;;4.97;;
80104;SDS011;69865;47.648;19.030;2023-07-29T01:44:37;5.07;;;5.07;;
80104;SDS011;69865;47.648;19.030;2023-07-29T01:45:09;4.57;;;4.57;;
80104;SDS011;69865;47.648;19.030;2023-07-29T01:45:41;4.87;;;4.87;;
80104;SDS011;69865;47.648;19.030;2023-07-29T01:46:14;5.00;;;5.00;;
80104;SDS011;69865;47.648;19.030;2023-07-29T01:46:47;5.10;;;5.10;;
80104;SDS011;69865;47.648;19.030;2023-07-29T01:47:20;5.43;;;5.43;;
80104;SDS011;69865;47.648;19.030;2023-07-29T01:47:52;4.73;;;4.73;;
80104;SDS011;69865;47.648;19.030;2023-07-29T01:48:24;4.80;;;4.80;;
80104;SDS011;69865;47.648;19.030;2023-07-29T01:48:57;4.37;;;4.37;;
80104;SDS011;69865;47.648;19.030;2023-07-29T01:49:29;4.90;;;4.90;;
80104;SDS011;69865;47.648;19.030;2023-07-29T01:50:01;5.10;;;5.10;;
80104;SDS011;69865;47.648;19.030;2023-07-29T01:50:33;5.03;;;5.03;;
80104;SDS011;69865;47.648;19.030;2023-07-29T01:51:05;5.03;;;5.03;;
80104;SDS011;69865;47.648;19.030;2023-07-29T01:51:37;5.10;;;5.10;;
80104;SDS011;69865;47.648;19.030;2023-07-29T01:52:09;5.07;;;5.07;;
80104;SDS011;69865;47.648;19.030;2023-07-29T01:52:41;5.10;;;5.10;;
80104;SDS011;69865;47.648;19.030;2023-07-29T01:53:13;4.80;;;4.80;;
80104;SDS011;69865;47.648;19.030;2023-07-29T01:53:46;5.23;;;5.23;;
80104;SDS011;69865;47.648;19.030;2023-07-29T01:54:19;4.63;;;4.63;;
80104;SDS011;69865;47.648;19.030;2023-07-29T01:54:51;4.93;;;4.93;;
80104;SDS011;69865;47.648;19.030;2023-07-29T01:55:23;4.70;;;4.70;;
80104;SDS011;69865;47.648;19.030;2023-07-29T01:55:56;4.43;;;4.43;;
80104;SDS011;69865;47.648;19.030;2023-07-29T01:56:28;4.50;;;4.50;;
80104;SDS011;69865;47.648;19.030;2023-07-29T01:57:00;4.57;;;4.57;;
80104;SDS011;69865;47.648;19.030;2023-07-29T01:57:32;5.13;;;5.13;;
80104;SDS011;69865;47.648;19.030;2023-07-29T01:58:04;5.03;;;5.03;;
80104;SDS011;69865;47.648;19.030;2023-07-29T01:58:36;5.23;;;5.23;;
80104;SDS011;69865;47.648;19.030;2023-07-29T01:59:08;4.63;;;4.63;;
80104;SDS011;69865;47.648;19.030;2023-07-29T01:59:40;4.93;;;4.93;;
80104;SDS011;69865;47.648;19.030;2023-07-29T02:00:12;5.30;;;5.30;;
80104;SDS011;69865;47.648;19.030;2023-07-29T02:00:44;5.00;;;5.00;;
80104;SDS011;69865;47.648;19.030;2023-07-29T02:01:17;4.87;;;4.87;;
80104;SDS011;69865;47.648;19.030;2023-07-29T02:01:49;4.50;;;4.50;;
80104;SDS011;69865;47.648;19.030;2023-07-29T02:02:21;4.57;;;4.57;;
80104;SDS011;69865;47.648;19.030;2023-07-29T02:02:53;5.10;;;5.10;;
80104;SDS011;69865;47.648;19.030;2023-07-29T02:03:25;5.10;;;5.10;;
80104;SDS011;69865;47.648;19.030;2023-07-29T02:03:57;4.53;;;4.53;;
80104;SDS011;69865;47.648;19.030;2023-07-29T02:04:29;4.60;;;4.60;;
80104;SDS011;69865;47.648;19.030;2023-07-29T02:05:02;5.00;;;5.00;;
80104;SDS011;69865;47.648;19.030;2023-07-29T02:05:34;5.07;;;5.07;;
80104;SDS011;69865;47.648;19.030;2023-07-29T02:06:06;4.87;;;4.87;;
80104;SDS011;69865;47.648;19.030;2023-07-29T02:06:38;5.00;;;5.00;;
80104;SDS011;69865;47.648;19.030;2023-07-29T02:07:10;4.97;;;4.97;;
80104;SDS011;69865;47.648;19.030;2023-07-29T02:07:42;4.83;;;4.83;;
80104;SDS011;69865;47.648;19.030;2023-07-29T02:08:14;4.87;;;4.87;;
80104;SDS011;69865;47.648;19.030;2023-07-29T02:08:46;5.17;;;5.17;;
80104;SDS011;69865;47.648;19.030;2023-07-29T02:09:20;4.90;;;4.90;;
80104;SDS011;69865;47.648;19.030;2023-07-29T02:09:52;4.87;;;4.87;;
80104;SDS011;69865;47.648;19.030;2023-07-29T02:10:24;4.87;;;4.87;;
80104;SDS011;69865;47.648;19.030;2023-07-29T02:10:56;5.37;;;5.37;;
80104;SDS011;69865;47.648;19.030;2023-07-29T02:11:28;5.33;;;5.33;;
80104;SDS011;69865;47.648;19.030;2023-07-29T02:12:00;5.17;;;5.17;;
80104;SDS011;69865;47.648;19.030;2023-07-29T02:12:32;5.07;;;5.07;;
80104;SDS011;69865;47.648;19.030;2023-07-29T02:13:04;4.90;;;4.90;;
80104;SDS011;69865;47.648;19.030;2023-07-29T02:13:36;5.00;;;5.00;;
80104;SDS011;69865;47.648;19.030;2023-07-29T02:14:08;5.03;;;5.03;;
80104;SDS011;69865;47.648;19.030;2023-07-29T02:14:40;4.83;;;4.83;;
80104;SDS011;69865;47.648;19.030;2023-07-29T02:15:12;5.33;;;5.33;;
80104;SDS011;69865;47.648;19.030;2023-07-29T02:15:45;4.93;;;4.93;;
80104;SDS011;69865;47.648;19.030;2023-07-29T02:16:17;5.17;;;5.17;;
80104;SDS011;69865;47.648;19.030;2023-07-29T02:16:49;5.40;;;5.40;;
80104;SDS011;69865;47.648;19.030;2023-07-29T02:17:21;5.00;;;5.00;;
80104;SDS011;69865;47.648;19.030;2023-07-29T02:17:53;4.60;;;4.60;;
80104;SDS011;69865;47.648;19.030;2023-07-29T02:18:25;5.13;;;5.13;;
80104;SDS011;69865;47.648;19.030;2023-07-29T02:18:57;5.27;;;5.27;;
80104;SDS011;69865;47.648;19.030;2023-07-29T02:19:29;5.23;;;5.23;;
80104;SDS011;69865;47.648;19.030;2023-07-29T02:20:01;5.03;;;5.03;;
80104;SDS011;69865;47.648;19.030;2023-07-29T02:20:33;5.30;;;5.30;;
80104;SDS011;69865;47.648;19.030;2023-07-29T02:21:06;4.67;;;4.67;;
80104;SDS011;69865;47.648;19.030;2023-07-29T02:21:38;4.17;;;4.17;;
80104;SDS011;69865;47.648;19.030;2023-07-29T02:22:10;4.47;;;4.47;;
80104;SDS011;69865;47.648;19.030;2023-07-29T02:22:44;4.80;;;4.80;;
80104;SDS011;69865;47.648;19.030;2023-07-29T02:23:16;4.93;;;4.93;;
80104;SDS011;69865;47.648;19.030;2023-07-29T02:23:48;4.80;;;4.80;;
80104;SDS011;69865;47.648;19.030;2023-07-29T02:24:22;4.47;;;4.47;;
80104;SDS011;69865;47.648;19.030;2023-07-29T02:24:54;4.60;;;4.60;;
80104;SDS011;69865;47.648;19.030;2023-07-29T02:25:27;4.90;;;4.90;;
80104;SDS011;69865;47.648;19.030;2023-07-29T02:25:59;5.17;;;5.17;;
80104;SDS011;69865;47.648;19.030;2023-07-29T02:26:31;4.93;;;4.93;;
80104;SDS011;69865;47.648;19.030;2023-07-29T02:27:03;4.97;;;4.97;;
80104;SDS011;69865;47.648;19.030;2023-07-29T02:27:36;4.50;;;4.50;;
80104;SDS011;69865;47.648;19.030;2023-07-29T02:28:08;4.53;;;4.53;;
80104;SDS011;69865;47.648;19.030;2023-07-29T02:28:40;4.90;;;4.90;;
80104;SDS011;69865;47.648;19.030;2023-07-29T02:29:12;4.70;;;4.70;;
80104;SDS011;69865;47.648;19.030;2023-07-29T02:29:44;4.87;;;4.87;;
80104;SDS011;69865;47.648;19.030;2023-07-29T02:30:16;4.83;;;4.83;;
80104;SDS011;69865;47.648;19.030;2023-07-29T02:30:53;5.00;;;5.00;;
80104;SDS011;69865;47.648;19.030;2023-07-29T02:31:41;4.63;;;4.63;;
80104;SDS011;69865;47.648;19.030;2023-07-29T02:32:13;4.43;;;4.43;;
80104;SDS011;69865;47.648;19.030;2023-07-29T02:32:45;4.90;;;4.90;;
80104;SDS011;69865;47.648;19.030;2023-07-29T02:33:18;4.63;;;4.63;;
80104;SDS011;69865;47.648;19.030;2023-07-29T02:33:50;4.60;;;4.60;;
80104;SDS011;69865;47.648;19.030;2023-07-29T02:34:22;4.13;;;4.13;;
80104;SDS011;69865;47.648;19.030;2023-07-29T02:34:55;4.23;;;4.23;;
80104;SDS011;69865;47.648;19.030;2023-07-29T02:35:27;4.47;;;4.47;;
80104;SDS011;69865;47.648;19.030;2023-07-29T02:35:59;4.70;;;4.70;;
80104;SDS011;69865;47.648;19.030;2023-07-29T02:36:31;5.20;;;5.20;;
80104;SDS011;69865;47.648;19.030;2023-07-29T02:37:04;4.40;;;4.40;;
80104;SDS011;69865;47.648;19.030;2023-07-29T02:37:36;4.43;;;4.43;;
80104;SDS011;69865;47.648;19.030;2023-07-29T02:38:08;4.57;;;4.57;;
80104;SDS011;69865;47.648;19.030;2023-07-29T02:38:40;4.43;;;4.43;;
80104;SDS011;69865;47.648;19.030;2023-07-29T02:39:12;4.97;;;4.97;;
80104;SDS011;69865;47.648;19.030;2023-07-29T02:39:46;5.20;;;5.20;;
80104;SDS011;69865;47.648;19.030;2023-07-29T02:40:18;4.60;;;4.60;;
80104;SDS011;69865;47.648;19.030;2023-07-29T02:40:50;4.67;;;4.67;;
80104;SDS011;69865;47.648;19.030;2023-07-29T02:41:22;4.80;;;4.80;;
80104;SDS011;69865;47.648;19.030;2023-07-29T02:41:54;4.83;;;4.83;;
80104;SDS011;69865;47.648;19.030;2023-07-29T02:42:26;4.50;;;4.50;;
80104;SDS011;69865;47.648;19.030;2023-07-29T02:42:58;4.80;;;4.80;;
80104;SDS011;69865;47.648;19.030;2023-07-29T02:43:30;4.70;;;4.70;;
80104;SDS011;69865;47.648;19.030;2023-07-29T02:44:02;4.73;;;4.73;;
80104;SDS011;69865;47.648;19.030;2023-07-29T02:44:34;4.93;;;4.93;;
80104;SDS011;69865;47.648;19.030;2023-07-29T02:45:07;5.50;;;5.50;;
80104;SDS011;69865;47.648;19.030;2023-07-29T02:45:39;4.97;;;4.97;;
80104;SDS011;69865;47.648;19.030;2023-07-29T02:46:12;4.73;;;4.73;;
80104;SDS011;69865;47.648;19.030;2023-07-29T02:46:44;4.80;;;4.80;;
80104;SDS011;69865;47.648;19.030;2023-07-29T02:47:16;4.47;;;4.47;;
80104;SDS011;69865;47.648;19.030;2023-07-29T02:47:48;4.60;;;4.60;;
80104;SDS011;69865;47.648;19.030;2023-07-29T02:48:21;4.37;;;4.37;;
80104;SDS011;69865;47.648;19.030;2023-07-29T02:48:53;4.03;;;4.03;;
80104;SDS011;69865;47.648;19.030;2023-07-29T02:49:25;4.13;;;4.13;;
80104;SDS011;69865;47.648;19.030;2023-07-29T02:49:57;4.40;;;4.40;;
80104;SDS011;69865;47.648;19.030;2023-07-29T02:50:29;4.40;;;4.40;;
80104;SDS011;69865;47.648;19.030;2023-07-29T02:51:01;4.37;;;4.37;;
80104;SDS011;69865;47.648;19.030;2023-07-29T02:51:33;4.10;;;4.10;;
80104;SDS011;69865;47.648;19.030;2023-07-29T02:52:05;4.27;;;4.27;;
80104;SDS011;69865;47.648;19.030;2023-07-29T02:52:38;4.27;;;4.27;;
80104;SDS011;69865;47.648;19.030;2023-07-29T02:53:10;4.30;;;4.30;;
80104;SDS011;69865;47.648;19.030;2023-07-29T02:53:42;4.40;;;4.40;;
80104;SDS011;69865;47.648;19.030;2023-07-29T02:54:14;4.43;;;4.43;;
80104;SDS011;69865;47.648;19.030;2023-07-29T02:54:48;4.17;;;4.17;;
80104;SDS011;69865;47.648;19.030;2023-07-29T02:55:20;4.60;;;4.60;;
80104;SDS011;69865;47.648;19.030;2023-07-29T02:55:52;4.63;;;4.63;;
80104;SDS011;69865;47.648;19.030;2023-07-29T02:56:24;4.83;;;4.83;;
80104;SDS011;69865;47.648;19.030;2023-07-29T02:56:56;4.57;;;4.57;;
80104;SDS011;69865;47.648;19.030;2023-07-29T02:57:28;4.87;;;4.87;;
80104;SDS011;69865;47.648;19.030;2023-07-29T02:58:01;5.03;;;5.03;;
80104;SDS011;69865;47.648;19.030;2023-07-29T02:58:33;4.63;;;4.63;;
80104;SDS011;69865;47.648;19.030;2023-07-29T02:59:05;4.80;;;4.80;;
80104;SDS011;69865;47.648;19.030;2023-07-29T02:59:37;4.93;;;4.93;;
80104;SDS011;69865;47.648;19.030;2023-07-29T03:00:09;4.90;;;4.90;;
80104;SDS011;69865;47.648;19.030;2023-07-29T03:00:42;4.83;;;4.83;;
80104;SDS011;69865;47.648;19.030;2023-07-29T03:01:14;5.03;;;5.03;;
80104;SDS011;69865;47.648;19.030;2023-07-29T03:01:47;5.00;;;5.00;;
80104;SDS011;69865;47.648;19.030;2023-07-29T03:02:19;4.40;;;4.40;;
80104;SDS011;69865;47.648;19.030;2023-07-29T03:02:51;4.80;;;4.80;;
80104;SDS011;69865;47.648;19.030;2023-07-29T03:03:23;4.67;;;4.67;;
80104;SDS011;69865;47.648;19.030;2023-07-29T03:03:55;5.40;;;5.40;;
80104;SDS011;69865;47.648;19.030;2023-07-29T03:04:27;4.97;;;4.97;;
80104;SDS011;69865;47.648;19.030;2023-07-29T03:05:00;4.67;;;4.67;;
80104;SDS011;69865;47.648;19.030;2023-07-29T03:05:32;4.47;;;4.47;;
80104;SDS011;69865;47.648;19.030;2023-07-29T03:06:05;4.67;;;4.67;;
80104;SDS011;69865;47.648;19.030;2023-07-29T03:06:38;4.63;;;4.63;;
80104;SDS011;69865;47.648;19.030;2023-07-29T03:07:10;4.57;;;4.57;;
80104;SDS011;69865;47.648;19.030;2023-07-29T03:07:42;4.53;;;4.53;;
80104;SDS011;69865;47.648;19.030;2023-07-29T03:08:14;4.60;;;4.60;;
80104;SDS011;69865;47.648;19.030;2023-07-29T03:08:46;4.50;;;4.50;;
80104;SDS011;69865;47.648;19.030;2023-07-29T03:09:18;4.80;;;4.80;;
80104;SDS011;69865;47.648;19.030;2023-07-29T03:09:52;4.63;;;4.63;;
80104;SDS011;69865;47.648;19.030;2023-07-29T03:10:24;4.70;;;4.70;;
80104;SDS011;69865;47.648;19.030;2023-07-29T03:10:56;4.90;;;4.90;;
80104;SDS011;69865;47.648;19.030;2023-07-29T03:11:29;5.17;;;5.17;;
80104;SDS011;69865;47.648;19.030;2023-07-29T03:12:01;4.80;;;4.80;;
80104;SDS011;69865;47.648;19.030;2023-07-29T03:12:33;4.80;;;4.80;;
80104;SDS011;69865;47.648;19.030;2023-07-29T03:13:05;5.13;;;5.13;;
80104;SDS011;69865;47.648;19.030;2023-07-29T03:13:37;5.17;;;5.17;;
80104;SDS011;69865;47.648;19.030;2023-07-29T03:14:10;5.00;;;5.00;;
80104;SDS011;69865;47.648;19.030;2023-07-29T03:14:42;4.60;;;4.60;;
80104;SDS011;69865;47.648;19.030;2023-07-29T03:15:14;4.67;;;4.67;;
80104;SDS011;69865;47.648;19.030;2023-07-29T03:15:46;4.97;;;4.97;;
80104;SDS011;69865;47.648;19.030;2023-07-29T03:16:18;4.77;;;4.77;;
80104;SDS011;69865;47.648;19.030;2023-07-29T03:16:50;4.77;;;4.77;;